Terminal Aerodrome Forecast
Issued by NWS

Home | Current Version | Previous Version | Text Only | Print | Product List | Glossary On
Versions: 1 2 3 4 5 6 7 8 9 10 11 12 13 14 15 16 17 18 19
975
FTUS41 KAKQ 231722
TAFPHF
TAF
KPHF 231722Z 2318/2418 08007KT P6SM SKC
     FM240100 08003KT P6SM SKC
      TEMPO 2402/2404 2SM BR
     FM240400 00000KT 2SM BR SKC
      TEMPO 2404/2408 1/2SM FG
     FM240800 00000KT 4SM BR SKC
      TEMPO 2408/2410 1SM BR
     FM241200 03006KT P6SM SKC=

USA.gov is the U.S. government's official web portal to all federal, state and local government web resources and services.